sensor_id;sensor_type;location;lat;lon;timestamp;P1;durP1;ratioP1;P2;durP2;ratioP2
18210;SDS011;9231;48.852;9.882;2022-09-09T00:00:43;7.57;;;3.30;;
18210;SDS011;9231;48.852;9.882;2022-09-09T00:03:12;4.53;;;2.50;;
18210;SDS011;9231;48.852;9.882;2022-09-09T00:05:41;4.20;;;1.60;;
18210;SDS011;9231;48.852;9.882;2022-09-09T00:08:12;5.27;;;2.20;;
18210;SDS011;9231;48.852;9.882;2022-09-09T00:10:40;2.93;;;1.90;;
18210;SDS011;9231;48.852;9.882;2022-09-09T00:13:13;2.67;;;1.90;;
18210;SDS011;9231;48.852;9.882;2022-09-09T00:15:43;3.57;;;2.33;;
18210;SDS011;9231;48.852;9.882;2022-09-09T00:18:14;2.93;;;2.03;;
18210;SDS011;9231;48.852;9.882;2022-09-09T00:20:43;3.40;;;1.93;;
18210;SDS011;9231;48.852;9.882;2022-09-09T00:23:12;1.77;;;1.40;;
18210;SDS011;9231;48.852;9.882;2022-09-09T00:25:40;3.43;;;1.60;;
18210;SDS011;9231;48.852;9.882;2022-09-09T00:28:10;3.10;;;1.33;;
18210;SDS011;9231;48.852;9.882;2022-09-09T00:30:39;4.77;;;1.53;;
18210;SDS011;9231;48.852;9.882;2022-09-09T00:33:09;3.20;;;1.60;;
18210;SDS011;9231;48.852;9.882;2022-09-09T00:35:37;2.40;;;1.33;;
18210;SDS011;9231;48.852;9.882;2022-09-09T00:38:05;1.83;;;1.10;;
18210;SDS011;9231;48.852;9.882;2022-09-09T00:40:37;3.93;;;1.10;;
18210;SDS011;9231;48.852;9.882;2022-09-09T00:43:09;5.70;;;1.40;;
18210;SDS011;9231;48.852;9.882;2022-09-09T00:45:50;1.73;;;1.23;;
18210;SDS011;9231;48.852;9.882;2022-09-09T00:48:17;4.07;;;1.37;;
18210;SDS011;9231;48.852;9.882;2022-09-09T00:50:45;2.17;;;1.50;;
18210;SDS011;9231;48.852;9.882;2022-09-09T00:53:18;3.73;;;1.43;;
18210;SDS011;9231;48.852;9.882;2022-09-09T00:55:48;5.87;;;1.90;;
18210;SDS011;9231;48.852;9.882;2022-09-09T00:58:15;5.90;;;1.70;;
18210;SDS011;9231;48.852;9.882;2022-09-09T01:00:42;3.03;;;1.20;;
18210;SDS011;9231;48.852;9.882;2022-09-09T01:03:17;2.77;;;1.43;;
18210;SDS011;9231;48.852;9.882;2022-09-09T01:05:46;5.93;;;1.70;;
18210;SDS011;9231;48.852;9.882;2022-09-09T01:08:20;4.13;;;1.43;;
18210;SDS011;9231;48.852;9.882;2022-09-09T01:10:50;3.30;;;1.13;;
18210;SDS011;9231;48.852;9.882;2022-09-09T01:13:20;3.30;;;1.30;;
18210;SDS011;9231;48.852;9.882;2022-09-09T01:15:49;2.67;;;1.10;;
18210;SDS011;9231;48.852;9.882;2022-09-09T01:18:20;1.20;;;1.10;;
18210;SDS011;9231;48.852;9.882;2022-09-09T01:20:49;1.50;;;1.33;;
18210;SDS011;9231;48.852;9.882;2022-09-09T01:23:27;3.50;;;1.27;;
18210;SDS011;9231;48.852;9.882;2022-09-09T01:26:10;2.30;;;1.20;;
18210;SDS011;9231;48.852;9.882;2022-09-09T01:28:39;3.23;;;2.20;;
18210;SDS011;9231;48.852;9.882;2022-09-09T01:31:06;4.73;;;1.70;;
18210;SDS011;9231;48.852;9.882;2022-09-09T01:33:34;1.67;;;0.97;;
18210;SDS011;9231;48.852;9.882;2022-09-09T01:36:00;2.10;;;1.30;;
18210;SDS011;9231;48.852;9.882;2022-09-09T01:38:28;3.23;;;1.30;;
18210;SDS011;9231;48.852;9.882;2022-09-09T01:40:55;3.60;;;1.27;;
18210;SDS011;9231;48.852;9.882;2022-09-09T01:43:24;4.40;;;1.30;;
18210;SDS011;9231;48.852;9.882;2022-09-09T01:45:52;4.27;;;1.20;;
18210;SDS011;9231;48.852;9.882;2022-09-09T01:48:19;3.67;;;1.27;;
18210;SDS011;9231;48.852;9.882;2022-09-09T01:50:47;3.13;;;1.20;;
18210;SDS011;9231;48.852;9.882;2022-09-09T01:53:14;3.27;;;1.20;;
18210;SDS011;9231;48.852;9.882;2022-09-09T01:55:42;4.10;;;1.40;;
18210;SDS011;9231;48.852;9.882;2022-09-09T01:58:16;5.00;;;1.00;;
18210;SDS011;9231;48.852;9.882;2022-09-09T02:00:48;2.17;;;1.07;;
18210;SDS011;9231;48.852;9.882;2022-09-09T02:03:19;3.13;;;1.03;;
18210;SDS011;9231;48.852;9.882;2022-09-09T02:05:50;2.73;;;1.13;;
18210;SDS011;9231;48.852;9.882;2022-09-09T02:08:20;3.27;;;1.00;;
18210;SDS011;9231;48.852;9.882;2022-09-09T02:10:47;1.63;;;1.10;;
18210;SDS011;9231;48.852;9.882;2022-09-09T02:13:17;4.50;;;1.13;;
18210;SDS011;9231;48.852;9.882;2022-09-09T02:15:46;1.87;;;1.13;;
18210;SDS011;9231;48.852;9.882;2022-09-09T02:18:16;1.00;;;0.90;;
18210;SDS011;9231;48.852;9.882;2022-09-09T02:20:45;4.33;;;1.20;;
18210;SDS011;9231;48.852;9.882;2022-09-09T02:23:12;2.90;;;1.13;;
18210;SDS011;9231;48.852;9.882;2022-09-09T02:25:39;4.87;;;1.13;;
18210;SDS011;9231;48.852;9.882;2022-09-09T02:28:06;4.50;;;1.13;;
18210;SDS011;9231;48.852;9.882;2022-09-09T02:30:34;4.10;;;1.20;;
18210;SDS011;9231;48.852;9.882;2022-09-09T02:33:03;3.57;;;0.90;;
18210;SDS011;9231;48.852;9.882;2022-09-09T02:35:32;3.57;;;1.30;;
18210;SDS011;9231;48.852;9.882;2022-09-09T02:38:04;3.53;;;1.40;;
18210;SDS011;9231;48.852;9.882;2022-09-09T02:40:31;4.57;;;1.40;;
18210;SDS011;9231;48.852;9.882;2022-09-09T02:42:57;3.27;;;0.90;;
18210;SDS011;9231;48.852;9.882;2022-09-09T02:45:25;3.77;;;1.13;;
18210;SDS011;9231;48.852;9.882;2022-09-09T02:47:55;3.80;;;1.30;;
18210;SDS011;9231;48.852;9.882;2022-09-09T02:50:25;2.10;;;1.13;;
18210;SDS011;9231;48.852;9.882;2022-09-09T02:52:58;2.67;;;1.10;;
18210;SDS011;9231;48.852;9.882;2022-09-09T02:55:29;3.40;;;1.23;;
18210;SDS011;9231;48.852;9.882;2022-09-09T02:57:58;1.87;;;1.00;;
18210;SDS011;9231;48.852;9.882;2022-09-09T03:00:26;3.93;;;1.27;;
18210;SDS011;9231;48.852;9.882;2022-09-09T03:02:53;2.23;;;1.30;;
18210;SDS011;9231;48.852;9.882;2022-09-09T03:05:19;1.90;;;1.20;;
18210;SDS011;9231;48.852;9.882;2022-09-09T03:07:46;4.43;;;1.43;;
18210;SDS011;9231;48.852;9.882;2022-09-09T03:10:14;2.33;;;1.17;;
18210;SDS011;9231;48.852;9.882;2022-09-09T03:12:40;3.73;;;1.40;;
18210;SDS011;9231;48.852;9.882;2022-09-09T03:15:07;2.50;;;1.23;;
18210;SDS011;9231;48.852;9.882;2022-09-09T03:17:35;1.90;;;1.00;;
18210;SDS011;9231;48.852;9.882;2022-09-09T03:20:01;1.30;;;1.10;;
18210;SDS011;9231;48.852;9.882;2022-09-09T03:22:28;3.30;;;1.23;;
18210;SDS011;9231;48.852;9.882;2022-09-09T03:24:54;3.23;;;1.20;;
18210;SDS011;9231;48.852;9.882;2022-09-09T03:27:22;0.97;;;0.87;;
18210;SDS011;9231;48.852;9.882;2022-09-09T03:29:48;4.17;;;1.20;;
18210;SDS011;9231;48.852;9.882;2022-09-09T03:32:16;3.77;;;1.10;;
18210;SDS011;9231;48.852;9.882;2022-09-09T03:34:42;4.20;;;1.07;;
18210;SDS011;9231;48.852;9.882;2022-09-09T03:37:09;3.10;;;1.00;;
18210;SDS011;9231;48.852;9.882;2022-09-09T03:39:35;1.43;;;1.23;;
18210;SDS011;9231;48.852;9.882;2022-09-09T03:42:02;6.53;;;1.20;;
18210;SDS011;9231;48.852;9.882;2022-09-09T03:44:30;1.77;;;1.20;;
18210;SDS011;9231;48.852;9.882;2022-09-09T03:46:57;3.37;;;1.23;;
18210;SDS011;9231;48.852;9.882;2022-09-09T03:49:25;3.10;;;1.07;;
18210;SDS011;9231;48.852;9.882;2022-09-09T03:51:53;3.00;;;1.33;;
18210;SDS011;9231;48.852;9.882;2022-09-09T03:54:20;2.47;;;1.00;;
18210;SDS011;9231;48.852;9.882;2022-09-09T03:56:46;2.30;;;0.93;;
18210;SDS011;9231;48.852;9.882;2022-09-09T03:59:13;3.87;;;1.23;;
18210;SDS011;9231;48.852;9.882;2022-09-09T04:01:40;1.93;;;1.13;;
18210;SDS011;9231;48.852;9.882;2022-09-09T04:04:07;3.73;;;1.20;;
18210;SDS011;9231;48.852;9.882;2022-09-09T04:06:34;2.70;;;1.37;;
18210;SDS011;9231;48.852;9.882;2022-09-09T04:09:01;2.60;;;1.20;;
18210;SDS011;9231;48.852;9.882;2022-09-09T04:11:28;1.80;;;1.20;;
18210;SDS011;9231;48.852;9.882;2022-09-09T04:13:54;2.77;;;1.27;;
18210;SDS011;9231;48.852;9.882;2022-09-09T04:16:20;4.40;;;1.33;;
18210;SDS011;9231;48.852;9.882;2022-09-09T04:18:48;3.77;;;1.10;;
18210;SDS011;9231;48.852;9.882;2022-09-09T04:21:15;3.87;;;1.20;;
18210;SDS011;9231;48.852;9.882;2022-09-09T04:23:42;2.30;;;1.10;;
18210;SDS011;9231;48.852;9.882;2022-09-09T04:26:08;4.30;;;1.27;;
18210;SDS011;9231;48.852;9.882;2022-09-09T04:28:35;2.63;;;1.30;;
18210;SDS011;9231;48.852;9.882;2022-09-09T04:31:06;3.47;;;1.30;;
18210;SDS011;9231;48.852;9.882;2022-09-09T04:33:33;3.80;;;1.30;;
18210;SDS011;9231;48.852;9.882;2022-09-09T04:36:01;2.80;;;0.97;;
18210;SDS011;9231;48.852;9.882;2022-09-09T04:38:27;3.17;;;1.00;;
18210;SDS011;9231;48.852;9.882;2022-09-09T04:40:54;2.67;;;1.30;;
18210;SDS011;9231;48.852;9.882;2022-09-09T04:43:21;3.70;;;1.10;;
18210;SDS011;9231;48.852;9.882;2022-09-09T04:45:48;3.37;;;1.17;;
18210;SDS011;9231;48.852;9.882;2022-09-09T04:48:15;5.53;;;1.10;;
18210;SDS011;9231;48.852;9.882;2022-09-09T04:50:41;3.80;;;1.30;;
18210;SDS011;9231;48.852;9.882;2022-09-09T04:53:09;3.47;;;1.47;;
18210;SDS011;9231;48.852;9.882;2022-09-09T04:55:35;2.30;;;1.10;;
18210;SDS011;9231;48.852;9.882;2022-09-09T04:58:03;4.47;;;1.43;;
18210;SDS011;9231;48.852;9.882;2022-09-09T05:00:29;1.83;;;1.00;;
18210;SDS011;9231;48.852;9.882;2022-09-09T05:02:56;4.03;;;1.10;;
18210;SDS011;9231;48.852;9.882;2022-09-09T05:05:25;2.53;;;1.10;;
18210;SDS011;9231;48.852;9.882;2022-09-09T05:07:52;2.97;;;1.10;;
18210;SDS011;9231;48.852;9.882;2022-09-09T05:10:20;4.07;;;1.70;;
18210;SDS011;9231;48.852;9.882;2022-09-09T05:12:51;3.93;;;1.77;;
18210;SDS011;9231;48.852;9.882;2022-09-09T05:15:18;3.73;;;1.37;;
18210;SDS011;9231;48.852;9.882;2022-09-09T05:17:45;2.33;;;1.00;;
18210;SDS011;9231;48.852;9.882;2022-09-09T05:20:12;3.53;;;1.17;;
18210;SDS011;9231;48.852;9.882;2022-09-09T05:22:38;3.40;;;1.10;;
18210;SDS011;9231;48.852;9.882;2022-09-09T05:25:05;1.10;;;1.00;;
18210;SDS011;9231;48.852;9.882;2022-09-09T05:27:34;3.83;;;1.40;;
18210;SDS011;9231;48.852;9.882;2022-09-09T05:30:01;4.80;;;1.33;;
18210;SDS011;9231;48.852;9.882;2022-09-09T05:32:29;4.17;;;1.13;;
18210;SDS011;9231;48.852;9.882;2022-09-09T05:34:58;1.17;;;1.00;;
18210;SDS011;9231;48.852;9.882;2022-09-09T05:37:25;3.27;;;1.43;;
18210;SDS011;9231;48.852;9.882;2022-09-09T05:39:51;2.93;;;1.70;;
18210;SDS011;9231;48.852;9.882;2022-09-09T05:42:18;3.67;;;1.10;;
18210;SDS011;9231;48.852;9.882;2022-09-09T05:44:46;5.33;;;1.50;;
18210;SDS011;9231;48.852;9.882;2022-09-09T05:47:12;4.60;;;1.33;;
18210;SDS011;9231;48.852;9.882;2022-09-09T05:49:40;4.43;;;1.10;;
18210;SDS011;9231;48.852;9.882;2022-09-09T05:52:06;4.20;;;1.20;;
18210;SDS011;9231;48.852;9.882;2022-09-09T05:54:34;2.93;;;1.10;;
18210;SDS011;9231;48.852;9.882;2022-09-09T05:57:00;2.27;;;1.00;;
18210;SDS011;9231;48.852;9.882;2022-09-09T05:59:27;2.10;;;1.10;;
18210;SDS011;9231;48.852;9.882;2022-09-09T06:01:54;1.80;;;1.30;;
18210;SDS011;9231;48.852;9.882;2022-09-09T06:04:21;2.17;;;1.20;;
18210;SDS011;9231;48.852;9.882;2022-09-09T06:06:49;4.33;;;1.33;;
18210;SDS011;9231;48.852;9.882;2022-09-09T06:09:15;4.83;;;1.10;;
18210;SDS011;9231;48.852;9.882;2022-09-09T06:11:42;2.23;;;1.00;;
18210;SDS011;9231;48.852;9.882;2022-09-09T06:14:08;3.20;;;1.27;;
18210;SDS011;9231;48.852;9.882;2022-09-09T06:16:35;3.33;;;1.20;;
18210;SDS011;9231;48.852;9.882;2022-09-09T06:19:04;4.17;;;1.00;;
18210;SDS011;9231;48.852;9.882;2022-09-09T06:21:31;1.50;;;1.03;;
18210;SDS011;9231;48.852;9.882;2022-09-09T06:23:58;2.10;;;1.17;;
18210;SDS011;9231;48.852;9.882;2022-09-09T06:26:25;2.13;;;0.90;;
18210;SDS011;9231;48.852;9.882;2022-09-09T06:28:52;2.70;;;1.20;;
18210;SDS011;9231;48.852;9.882;2022-09-09T06:31:19;2.23;;;1.20;;
18210;SDS011;9231;48.852;9.882;2022-09-09T06:33:47;3.43;;;1.30;;
18210;SDS011;9231;48.852;9.882;2022-09-09T06:36:16;1.60;;;0.87;;
18210;SDS011;9231;48.852;9.882;2022-09-09T06:38:43;2.20;;;1.10;;
18210;SDS011;9231;48.852;9.882;2022-09-09T06:41:09;2.43;;;1.03;;
18210;SDS011;9231;48.852;9.882;2022-09-09T06:43:36;2.47;;;1.00;;
18210;SDS011;9231;48.852;9.882;2022-09-09T06:46:05;2.07;;;1.10;;
18210;SDS011;9231;48.852;9.882;2022-09-09T06:48:33;3.67;;;1.27;;
18210;SDS011;9231;48.852;9.882;2022-09-09T06:51:00;2.40;;;1.10;;
18210;SDS011;9231;48.852;9.882;2022-09-09T06:53:28;2.67;;;1.20;;
18210;SDS011;9231;48.852;9.882;2022-09-09T06:55:54;3.27;;;0.93;;
18210;SDS011;9231;48.852;9.882;2022-09-09T06:58:21;1.67;;;1.00;;
18210;SDS011;9231;48.852;9.882;2022-09-09T07:00:48;3.30;;;1.17;;
18210;SDS011;9231;48.852;9.882;2022-09-09T07:03:14;1.83;;;1.00;;
18210;SDS011;9231;48.852;9.882;2022-09-09T07:05:41;3.80;;;1.20;;
18210;SDS011;9231;48.852;9.882;2022-09-09T07:08:09;4.80;;;1.27;;
18210;SDS011;9231;48.852;9.882;2022-09-09T07:10:38;3.00;;;1.10;;
18210;SDS011;9231;48.852;9.882;2022-09-09T07:18:52;4.63;;;1.03;;
18210;SDS011;9231;48.852;9.882;2022-09-09T07:21:22;2.03;;;1.00;;
18210;SDS011;9231;48.852;9.882;2022-09-09T07:23:49;4.10;;;1.10;;
18210;SDS011;9231;48.852;9.882;2022-09-09T07:26:17;3.30;;;1.20;;
18210;SDS011;9231;48.852;9.882;2022-09-09T07:28:44;2.90;;;0.77;;
18210;SDS011;9231;48.852;9.882;2022-09-09T07:31:12;1.37;;;0.80;;
18210;SDS011;9231;48.852;9.882;2022-09-09T07:33:40;2.90;;;0.97;;
18210;SDS011;9231;48.852;9.882;2022-09-09T07:37:42;4.43;;;1.07;;
18210;SDS011;9231;48.852;9.882;2022-09-09T07:40:08;3.17;;;1.30;;
18210;SDS011;9231;48.852;9.882;2022-09-09T07:42:35;1.77;;;0.90;;
18210;SDS011;9231;48.852;9.882;2022-09-09T07:45:02;1.30;;;0.83;;
18210;SDS011;9231;48.852;9.882;2022-09-09T07:47:29;2.33;;;0.83;;
18210;SDS011;9231;48.852;9.882;2022-09-09T07:49:55;3.70;;;0.90;;
18210;SDS011;9231;48.852;9.882;2022-09-09T07:52:21;5.93;;;1.10;;
18210;SDS011;9231;48.852;9.882;2022-09-09T07:54:50;1.63;;;0.80;;
18210;SDS011;9231;48.852;9.882;2022-09-09T07:57:17;2.13;;;0.97;;
18210;SDS011;9231;48.852;9.882;2022-09-09T07:59:43;2.13;;;0.80;;
18210;SDS011;9231;48.852;9.882;2022-09-09T08:02:10;1.20;;;0.60;;
18210;SDS011;9231;48.852;9.882;2022-09-09T08:04:37;1.43;;;0.80;;
18210;SDS011;9231;48.852;9.882;2022-09-09T08:07:03;2.77;;;0.90;;
18210;SDS011;9231;48.852;9.882;2022-09-09T08:09:29;2.90;;;0.70;;
18210;SDS011;9231;48.852;9.882;2022-09-09T08:11:58;2.73;;;1.00;;
18210;SDS011;9231;48.852;9.882;2022-09-09T08:14:26;2.10;;;1.07;;
18210;SDS011;9231;48.852;9.882;2022-09-09T08:16:53;3.70;;;1.10;;
18210;SDS011;9231;48.852;9.882;2022-09-09T08:19:19;2.27;;;1.00;;
18210;SDS011;9231;48.852;9.882;2022-09-09T08:21:46;0.90;;;0.60;;
18210;SDS011;9231;48.852;9.882;2022-09-09T08:24:14;1.80;;;0.80;;
18210;SDS011;9231;48.852;9.882;2022-09-09T08:26:41;1.10;;;0.63;;
18210;SDS011;9231;48.852;9.882;2022-09-09T08:29:09;3.53;;;0.93;;
18210;SDS011;9231;48.852;9.882;2022-09-09T08:31:37;1.57;;;0.90;;
18210;SDS011;9231;48.852;9.882;2022-09-09T08:34:05;1.30;;;0.70;;
18210;SDS011;9231;48.852;9.882;2022-09-09T08:36:32;1.27;;;0.77;;
18210;SDS011;9231;48.852;9.882;2022-09-09T08:38:59;3.10;;;0.90;;
18210;SDS011;9231;48.852;9.882;2022-09-09T08:41:31;2.93;;;0.90;;
18210;SDS011;9231;48.852;9.882;2022-09-09T08:44:00;2.03;;;1.10;;
18210;SDS011;9231;48.852;9.882;2022-09-09T08:46:30;3.03;;;0.90;;
18210;SDS011;9231;48.852;9.882;2022-09-09T08:56:36;0.93;;;0.60;;
18210;SDS011;9231;48.852;9.882;2022-09-09T08:59:02;2.97;;;1.03;;
18210;SDS011;9231;48.852;9.882;2022-09-09T09:04:24;3.70;;;0.90;;
18210;SDS011;9231;48.852;9.882;2022-09-09T09:06:54;4.13;;;1.23;;
18210;SDS011;9231;48.852;9.882;2022-09-09T09:09:26;5.10;;;1.27;;
18210;SDS011;9231;48.852;9.882;2022-09-09T09:11:57;1.97;;;0.80;;
18210;SDS011;9231;48.852;9.882;2022-09-09T09:14:26;1.83;;;0.90;;
18210;SDS011;9231;48.852;9.882;2022-09-09T09:16:54;1.53;;;1.00;;
18210;SDS011;9231;48.852;9.882;2022-09-09T09:19:22;5.70;;;1.00;;
18210;SDS011;9231;48.852;9.882;2022-09-09T09:21:52;2.30;;;0.77;;
18210;SDS011;9231;48.852;9.882;2022-09-09T09:24:22;1.40;;;0.90;;
18210;SDS011;9231;48.852;9.882;2022-09-09T09:26:49;3.87;;;1.00;;
18210;SDS011;9231;48.852;9.882;2022-09-09T09:29:19;2.83;;;1.23;;
18210;SDS011;9231;48.852;9.882;2022-09-09T09:31:47;3.23;;;1.00;;
18210;SDS011;9231;48.852;9.882;2022-09-09T09:34:14;3.37;;;0.90;;
18210;SDS011;9231;48.852;9.882;2022-09-09T09:36:43;3.50;;;0.77;;
18210;SDS011;9231;48.852;9.882;2022-09-09T09:39:21;3.90;;;1.17;;
18210;SDS011;9231;48.852;9.882;2022-09-09T09:41:48;3.07;;;1.00;;
18210;SDS011;9231;48.852;9.882;2022-09-09T09:44:26;2.67;;;1.07;;
18210;SDS011;9231;48.852;9.882;2022-09-09T09:47:04;4.00;;;0.93;;
18210;SDS011;9231;48.852;9.882;2022-09-09T09:49:31;1.90;;;1.03;;
18210;SDS011;9231;48.852;9.882;2022-09-09T09:51:59;1.83;;;0.90;;
18210;SDS011;9231;48.852;9.882;2022-09-09T09:54:27;3.27;;;1.00;;
18210;SDS011;9231;48.852;9.882;2022-09-09T09:56:54;3.67;;;1.20;;
18210;SDS011;9231;48.852;9.882;2022-09-09T09:59:22;2.37;;;1.10;;
18210;SDS011;9231;48.852;9.882;2022-09-09T10:01:51;8.10;;;1.20;;
18210;SDS011;9231;48.852;9.882;2022-09-09T10:04:18;3.60;;;1.00;;
18210;SDS011;9231;48.852;9.882;2022-09-09T10:06:45;2.33;;;0.80;;
18210;SDS011;9231;48.852;9.882;2022-09-09T10:09:20;6.20;;;1.30;;
18210;SDS011;9231;48.852;9.882;2022-09-09T10:11:48;2.17;;;1.00;;
18210;SDS011;9231;48.852;9.882;2022-09-09T10:14:19;3.17;;;1.10;;
18210;SDS011;9231;48.852;9.882;2022-09-09T10:16:54;3.47;;;1.00;;
18210;SDS011;9231;48.852;9.882;2022-09-09T10:19:27;3.37;;;0.93;;
18210;SDS011;9231;48.852;9.882;2022-09-09T10:21:57;5.40;;;1.23;;
18210;SDS011;9231;48.852;9.882;2022-09-09T10:24:32;3.63;;;0.90;;
18210;SDS011;9231;48.852;9.882;2022-09-09T10:27:03;4.33;;;1.27;;
18210;SDS011;9231;48.852;9.882;2022-09-09T10:29:45;5.20;;;1.30;;
18210;SDS011;9231;48.852;9.882;2022-09-09T10:32:32;6.43;;;1.10;;
18210;SDS011;9231;48.852;9.882;2022-09-09T10:35:02;4.03;;;0.90;;
18210;SDS011;9231;48.852;9.882;2022-09-09T10:37:34;4.30;;;1.13;;
18210;SDS011;9231;48.852;9.882;2022-09-09T10:40:02;3.67;;;1.27;;
18210;SDS011;9231;48.852;9.882;2022-09-09T10:42:31;3.87;;;1.00;;
18210;SDS011;9231;48.852;9.882;2022-09-09T10:45:00;2.90;;;1.10;;
18210;SDS011;9231;48.852;9.882;2022-09-09T10:47:40;4.57;;;1.17;;
18210;SDS011;9231;48.852;9.882;2022-09-09T10:52:58;1.57;;;0.97;;
18210;SDS011;9231;48.852;9.882;2022-09-09T10:55:28;2.50;;;1.00;;
18210;SDS011;9231;48.852;9.882;2022-09-09T10:58:02;6.23;;;1.27;;
18210;SDS011;9231;48.852;9.882;2022-09-09T11:00:30;1.73;;;0.90;;
18210;SDS011;9231;48.852;9.882;2022-09-09T11:03:03;1.80;;;0.80;;
18210;SDS011;9231;48.852;9.882;2022-09-09T11:05:34;2.93;;;0.80;;
18210;SDS011;9231;48.852;9.882;2022-09-09T11:08:03;3.20;;;1.10;;
18210;SDS011;9231;48.852;9.882;2022-09-09T11:10:34;4.17;;;1.27;;
18210;SDS011;9231;48.852;9.882;2022-09-09T11:13:03;4.33;;;1.27;;
18210;SDS011;9231;48.852;9.882;2022-09-09T11:15:31;5.13;;;1.07;;
18210;SDS011;9231;48.852;9.882;2022-09-09T11:18:01;2.17;;;0.80;;
18210;SDS011;9231;48.852;9.882;2022-09-09T11:20:32;3.47;;;0.97;;
18210;SDS011;9231;48.852;9.882;2022-09-09T11:23:00;2.73;;;1.20;;
18210;SDS011;9231;48.852;9.882;2022-09-09T11:25:29;2.50;;;0.80;;
18210;SDS011;9231;48.852;9.882;2022-09-09T11:28:01;2.07;;;0.73;;
18210;SDS011;9231;48.852;9.882;2022-09-09T11:30:32;2.23;;;0.63;;
18210;SDS011;9231;48.852;9.882;2022-09-09T11:36:06;3.13;;;0.70;;
18210;SDS011;9231;48.852;9.882;2022-09-09T11:38:39;1.20;;;0.53;;
18210;SDS011;9231;48.852;9.882;2022-09-09T11:41:08;2.97;;;0.80;;
18210;SDS011;9231;48.852;9.882;2022-09-09T11:43:38;2.93;;;0.80;;
18210;SDS011;9231;48.852;9.882;2022-09-09T11:46:05;3.87;;;0.80;;
18210;SDS011;9231;48.852;9.882;2022-09-09T11:48:33;4.07;;;0.70;;
18210;SDS011;9231;48.852;9.882;2022-09-09T11:51:01;2.73;;;0.97;;
18210;SDS011;9231;48.852;9.882;2022-09-09T11:53:31;2.50;;;0.80;;
18210;SDS011;9231;48.852;9.882;2022-09-09T11:56:09;1.43;;;0.47;;
18210;SDS011;9231;48.852;9.882;2022-09-09T11:58:37;3.23;;;0.73;;
18210;SDS011;9231;48.852;9.882;2022-09-09T12:01:16;3.03;;;0.83;;
18210;SDS011;9231;48.852;9.882;2022-09-09T12:03:51;6.97;;;0.93;;
18210;SDS011;9231;48.852;9.882;2022-09-09T12:06:25;1.37;;;0.70;;
18210;SDS011;9231;48.852;9.882;2022-09-09T12:08:55;3.70;;;0.87;;
18210;SDS011;9231;48.852;9.882;2022-09-09T12:11:25;3.03;;;0.90;;
18210;SDS011;9231;48.852;9.882;2022-09-09T12:13:53;2.13;;;0.70;;
18210;SDS011;9231;48.852;9.882;2022-09-09T12:16:31;2.57;;;0.73;;
18210;SDS011;9231;48.852;9.882;2022-09-09T12:19:06;2.20;;;0.80;;
18210;SDS011;9231;48.852;9.882;2022-09-09T12:21:34;2.33;;;0.67;;
18210;SDS011;9231;48.852;9.882;2022-09-09T12:24:05;1.23;;;0.63;;
18210;SDS011;9231;48.852;9.882;2022-09-09T12:26:34;1.83;;;0.60;;
18210;SDS011;9231;48.852;9.882;2022-09-09T12:29:10;5.10;;;0.87;;
18210;SDS011;9231;48.852;9.882;2022-09-09T12:31:40;1.67;;;0.63;;
18210;SDS011;9231;48.852;9.882;2022-09-09T12:34:09;1.87;;;0.50;;
18210;SDS011;9231;48.852;9.882;2022-09-09T12:36:37;2.10;;;0.47;;
18210;SDS011;9231;48.852;9.882;2022-09-09T12:39:14;5.53;;;0.90;;
18210;SDS011;9231;48.852;9.882;2022-09-09T12:41:50;3.00;;;0.70;;
18210;SDS011;9231;48.852;9.882;2022-09-09T12:44:21;3.03;;;0.87;;
18210;SDS011;9231;48.852;9.882;2022-09-09T12:46:48;4.10;;;0.90;;
18210;SDS011;9231;48.852;9.882;2022-09-09T12:49:23;1.80;;;0.77;;
18210;SDS011;9231;48.852;9.882;2022-09-09T12:51:52;2.13;;;0.87;;
18210;SDS011;9231;48.852;9.882;2022-09-09T12:54:20;2.50;;;0.80;;
18210;SDS011;9231;48.852;9.882;2022-09-09T12:56:47;2.87;;;0.90;;
18210;SDS011;9231;48.852;9.882;2022-09-09T12:59:19;3.03;;;0.77;;
18210;SDS011;9231;48.852;9.882;2022-09-09T13:01:54;1.87;;;0.87;;
18210;SDS011;9231;48.852;9.882;2022-09-09T13:04:21;4.37;;;0.70;;
18210;SDS011;9231;48.852;9.882;2022-09-09T13:06:48;2.13;;;1.00;;
18210;SDS011;9231;48.852;9.882;2022-09-09T13:09:15;4.50;;;0.90;;
18210;SDS011;9231;48.852;9.882;2022-09-09T13:11:43;4.37;;;1.20;;
18210;SDS011;9231;48.852;9.882;2022-09-09T13:14:12;3.40;;;0.77;;
18210;SDS011;9231;48.852;9.882;2022-09-09T13:16:53;1.83;;;0.63;;
18210;SDS011;9231;48.852;9.882;2022-09-09T13:19:20;2.77;;;0.60;;
18210;SDS011;9231;48.852;9.882;2022-09-09T13:21:47;4.00;;;1.00;;
18210;SDS011;9231;48.852;9.882;2022-09-09T13:24:25;2.57;;;1.07;;
18210;SDS011;9231;48.852;9.882;2022-09-09T13:26:55;2.67;;;0.83;;
18210;SDS011;9231;48.852;9.882;2022-09-09T13:29:22;5.40;;;0.70;;
18210;SDS011;9231;48.852;9.882;2022-09-09T13:31:48;2.03;;;0.60;;
18210;SDS011;9231;48.852;9.882;2022-09-09T13:34:25;2.80;;;0.90;;
18210;SDS011;9231;48.852;9.882;2022-09-09T13:36:53;2.60;;;0.80;;
18210;SDS011;9231;48.852;9.882;2022-09-09T13:39:21;1.33;;;0.70;;
18210;SDS011;9231;48.852;9.882;2022-09-09T13:41:48;3.43;;;0.77;;
18210;SDS011;9231;48.852;9.882;2022-09-09T13:44:17;2.27;;;0.60;;
18210;SDS011;9231;48.852;9.882;2022-09-09T13:46:44;2.37;;;0.77;;
18210;SDS011;9231;48.852;9.882;2022-09-09T13:49:19;1.77;;;0.50;;
18210;SDS011;9231;48.852;9.882;2022-09-09T13:51:46;0.30;;;0.30;;
18210;SDS011;9231;48.852;9.882;2022-09-09T13:54:14;3.17;;;0.50;;
18210;SDS011;9231;48.852;9.882;2022-09-09T13:56:41;2.17;;;0.73;;
18210;SDS011;9231;48.852;9.882;2022-09-09T13:59:09;2.43;;;0.63;;
18210;SDS011;9231;48.852;9.882;2022-09-09T14:01:38;3.40;;;0.83;;
18210;SDS011;9231;48.852;9.882;2022-09-09T14:04:04;2.13;;;1.00;;
18210;SDS011;9231;48.852;9.882;2022-09-09T14:06:31;1.27;;;0.70;;
18210;SDS011;9231;48.852;9.882;2022-09-09T14:08:58;2.30;;;0.50;;
18210;SDS011;9231;48.852;9.882;2022-09-09T14:11:24;4.17;;;0.93;;
18210;SDS011;9231;48.852;9.882;2022-09-09T14:13:51;1.50;;;0.60;;
18210;SDS011;9231;48.852;9.882;2022-09-09T14:16:17;3.17;;;0.57;;
18210;SDS011;9231;48.852;9.882;2022-09-09T14:18:45;1.40;;;0.50;;
18210;SDS011;9231;48.852;9.882;2022-09-09T14:21:11;3.47;;;0.70;;
18210;SDS011;9231;48.852;9.882;2022-09-09T14:23:38;2.57;;;0.73;;
18210;SDS011;9231;48.852;9.882;2022-09-09T14:26:05;1.73;;;0.70;;
18210;SDS011;9231;48.852;9.882;2022-09-09T14:28:32;2.13;;;0.70;;
18210;SDS011;9231;48.852;9.882;2022-09-09T14:30:59;2.63;;;0.80;;
18210;SDS011;9231;48.852;9.882;2022-09-09T14:33:25;2.00;;;0.50;;
18210;SDS011;9231;48.852;9.882;2022-09-09T14:35:56;0.83;;;0.30;;
18210;SDS011;9231;48.852;9.882;2022-09-09T14:38:23;1.47;;;0.70;;
18210;SDS011;9231;48.852;9.882;2022-09-09T14:40:49;1.60;;;0.60;;
18210;SDS011;9231;48.852;9.882;2022-09-09T14:43:15;0.73;;;0.50;;
18210;SDS011;9231;48.852;9.882;2022-09-09T14:45:42;2.57;;;0.67;;
18210;SDS011;9231;48.852;9.882;2022-09-09T14:48:09;1.17;;;0.40;;
18210;SDS011;9231;48.852;9.882;2022-09-09T14:50:35;0.83;;;0.60;;
18210;SDS011;9231;48.852;9.882;2022-09-09T14:53:06;4.40;;;0.67;;
18210;SDS011;9231;48.852;9.882;2022-09-09T14:55:33;1.90;;;0.60;;
18210;SDS011;9231;48.852;9.882;2022-09-09T14:58:00;1.97;;;0.73;;
18210;SDS011;9231;48.852;9.882;2022-09-09T15:00:26;1.47;;;0.50;;
18210;SDS011;9231;48.852;9.882;2022-09-09T15:02:53;1.90;;;0.40;;
18210;SDS011;9231;48.852;9.882;2022-09-09T15:05:19;2.63;;;0.70;;
18210;SDS011;9231;48.852;9.882;2022-09-09T15:07:46;6.10;;;0.90;;
18210;SDS011;9231;48.852;9.882;2022-09-09T15:10:14;0.83;;;0.37;;
18210;SDS011;9231;48.852;9.882;2022-09-09T15:12:42;2.73;;;0.70;;
18210;SDS011;9231;48.852;9.882;2022-09-09T15:15:08;1.10;;;0.50;;
18210;SDS011;9231;48.852;9.882;2022-09-09T15:17:35;2.97;;;0.40;;
18210;SDS011;9231;48.852;9.882;2022-09-09T15:20:02;2.60;;;0.57;;
18210;SDS011;9231;48.852;9.882;2022-09-09T15:22:28;1.47;;;0.60;;
18210;SDS011;9231;48.852;9.882;2022-09-09T15:24:55;1.37;;;0.40;;
18210;SDS011;9231;48.852;9.882;2022-09-09T15:27:22;3.10;;;0.60;;
18210;SDS011;9231;48.852;9.882;2022-09-09T15:29:49;3.63;;;0.90;;
18210;SDS011;9231;48.852;9.882;2022-09-09T15:32:16;1.60;;;0.50;;